createdAt,value
2022-10-06T00:00:25.725Z,98.19
2022-10-06T00:01:25.770Z,98.29
2022-10-06T00:02:25.749Z,98.08
2022-10-06T00:03:25.701Z,97.99
2022-10-06T00:04:25.709Z,97.99
2022-10-06T00:05:25.679Z,98.08
2022-10-06T00:06:25.659Z,97.67
2022-10-06T00:07:28.641Z,97.88
2022-10-06T00:08:26.122Z,98.08
2022-10-06T00:09:25.634Z,98.08
2022-10-06T00:10:25.614Z,98.19
2022-10-06T00:11:25.625Z,98.19
2022-10-06T00:12:25.606Z,98.39
2022-10-06T00:13:25.585Z,98.50
2022-10-06T00:14:25.565Z,98.60
2022-10-06T00:15:25.593Z,98.39
2022-10-06T00:16:25.564Z,98.39
2022-10-06T00:17:25.542Z,98.39
2022-10-06T00:18:25.992Z,98.50
2022-10-06T00:19:25.523Z,98.80
2022-10-06T00:20:25.513Z,98.70
2022-10-06T00:21:25.606Z,98.65
2022-10-06T00:22:28.495Z,98.60
2022-10-06T00:23:25.507Z,98.65
2022-10-06T00:24:25.480Z,98.75
2022-10-06T00:25:25.462Z,98.85
2022-10-06T00:26:25.497Z,98.75
2022-10-06T00:27:25.457Z,98.65
2022-10-06T00:28:25.828Z,98.54
2022-10-06T00:29:25.417Z,98.33
2022-10-06T00:30:25.412Z,98.33
2022-10-06T00:31:25.478Z,98.44
2022-10-06T00:32:25.389Z,98.44
2022-10-06T00:33:25.380Z,98.33
2022-10-06T00:34:25.372Z,98.33
2022-10-06T00:35:25.346Z,98.44
2022-10-06T00:36:25.384Z,98.54
2022-10-06T00:37:28.351Z,98.54
2022-10-06T00:38:25.586Z,98.54
2022-10-06T00:39:25.323Z,98.65
2022-10-06T00:40:25.311Z,98.65
2022-10-06T00:41:25.290Z,98.75
2022-10-06T00:42:25.281Z,98.65
2022-10-06T00:43:25.279Z,98.54
2022-10-06T00:44:25.297Z,98.65
2022-10-06T00:45:25.238Z,98.65
2022-10-06T00:46:25.321Z,98.85
2022-10-06T00:47:25.232Z,98.96
2022-10-06T00:48:25.498Z,98.54
2022-10-06T00:49:25.238Z,98.44
2022-10-06T00:50:25.219Z,98.49
2022-10-06T00:51:25.179Z,98.59
2022-10-06T00:52:28.263Z,98.69
2022-10-06T00:53:25.184Z,99.10
2022-10-06T00:54:25.154Z,99.21
2022-10-06T00:55:25.144Z,99.62
2022-10-06T00:56:25.142Z,99.72
2022-10-06T00:57:25.123Z,99.72
2022-10-06T00:58:25.602Z,99.72
2022-10-06T00:59:25.101Z,99.93
2022-10-06T01:00:25.095Z,99.99
2022-10-06T01:01:25.213Z,99.99
2022-10-06T01:02:25.091Z,99.99
2022-10-06T01:03:25.164Z,99.99
2022-10-06T01:04:25.054Z,99.99
2022-10-06T01:05:25.036Z,99.99
2022-10-06T01:06:25.022Z,99.99
2022-10-06T01:07:28.013Z,99.99
2022-10-06T01:08:25.267Z,99.99
2022-10-06T01:09:24.996Z,99.99
2022-10-06T01:10:25.000Z,99.99
2022-10-06T01:11:24.966Z,99.99
2022-10-06T01:12:24.966Z,99.99
2022-10-06T01:13:24.985Z,99.99
2022-10-06T01:14:25.088Z,99.99
2022-10-06T01:15:24.943Z,99.99
2022-10-06T01:16:24.939Z,99.99
2022-10-06T01:17:24.909Z,99.99
2022-10-06T01:18:25.100Z,99.99
2022-10-06T01:19:24.889Z,99.99
2022-10-06T01:20:24.877Z,99.99
2022-10-06T01:21:24.907Z,99.99
2022-10-06T01:22:27.857Z,99.99
2022-10-06T01:23:24.858Z,99.99
2022-10-06T01:24:24.837Z,99.99
2022-10-06T01:25:24.836Z,99.99
2022-10-06T01:26:24.809Z,99.99
2022-10-06T01:27:24.819Z,99.99
2022-10-06T01:28:24.931Z,99.99
2022-10-06T01:29:24.791Z,99.99
2022-10-06T01:30:24.800Z,99.99
2022-10-06T01:31:24.831Z,99.99
2022-10-06T01:32:24.749Z,99.99
2022-10-06T01:33:24.740Z,99.99
2022-10-06T01:34:24.741Z,99.99
2022-10-06T01:35:24.752Z,99.99
2022-10-06T01:36:24.711Z,99.99
2022-10-06T01:37:27.705Z,99.99
2022-10-06T01:38:24.703Z,99.99
2022-10-06T01:39:24.681Z,99.99
2022-10-06T01:40:24.685Z,99.99
2022-10-06T01:41:24.651Z,99.99
2022-10-06T01:42:24.645Z,99.99
2022-10-06T01:43:24.635Z,99.99
2022-10-06T01:44:24.631Z,99.99
2022-10-06T01:45:24.620Z,99.99
2022-10-06T01:46:24.717Z,99.99
2022-10-06T01:47:24.593Z,99.99
2022-10-06T01:48:24.675Z,99.99
2022-10-06T01:49:24.586Z,99.99
2022-10-06T01:50:24.563Z,99.99
2022-10-06T01:51:24.649Z,99.99
2022-10-06T01:52:27.534Z,99.99
2022-10-06T01:53:24.548Z,99.99
2022-10-06T01:54:24.524Z,99.99
2022-10-06T01:55:24.507Z,99.99
2022-10-06T01:56:24.504Z,99.99
2022-10-06T01:57:24.487Z,99.99
2022-10-06T01:58:24.487Z,99.99
2022-10-06T01:59:24.480Z,99.99
2022-10-06T02:00:24.465Z,99.99
2022-10-06T02:01:24.475Z,99.99
2022-10-06T02:02:24.465Z,99.99
2022-10-06T02:03:24.427Z,99.99
2022-10-06T02:04:24.445Z,99.99
2022-10-06T02:05:24.438Z,99.99
2022-10-06T02:06:24.463Z,99.99
2022-10-06T02:07:27.393Z,99.99
2022-10-06T02:08:24.397Z,99.99
2022-10-06T02:09:24.366Z,99.99
2022-10-06T02:10:24.359Z,99.99
2022-10-06T02:11:24.341Z,99.99
2022-10-06T02:12:24.331Z,99.99
2022-10-06T02:13:24.327Z,99.99
2022-10-06T02:14:24.320Z,99.99
2022-10-06T02:15:24.304Z,99.99
2022-10-06T02:16:24.416Z,99.99
2022-10-06T02:17:24.289Z,99.99
2022-10-06T02:18:24.268Z,99.99
2022-10-06T02:19:24.262Z,99.99
2022-10-06T02:20:24.251Z,99.99
2022-10-06T02:21:24.264Z,99.99
2022-10-06T02:22:27.230Z,99.99
2022-10-06T02:23:24.230Z,99.99
2022-10-06T02:24:24.221Z,99.99
2022-10-06T02:25:24.208Z,99.99
2022-10-06T02:26:24.182Z,99.99
2022-10-06T02:27:24.171Z,99.99
2022-10-06T02:28:24.208Z,99.99
2022-10-06T02:29:24.152Z,99.99
2022-10-06T02:30:24.153Z,99.99
2022-10-06T02:31:24.192Z,99.99
2022-10-06T02:32:24.174Z,99.99
2022-10-06T02:33:24.116Z,99.99
2022-10-06T02:34:24.104Z,99.99
2022-10-06T02:35:24.105Z,99.99
2022-10-06T02:36:24.085Z,99.99
2022-10-06T02:37:27.105Z,99.99
2022-10-06T02:38:24.064Z,99.99
2022-10-06T02:39:24.051Z,99.99
2022-10-06T02:40:24.034Z,99.99
2022-10-06T02:41:24.026Z,99.99
2022-10-06T02:42:24.029Z,99.99
2022-10-06T02:43:24.006Z,99.99
2022-10-06T02:44:23.996Z,99.99
2022-10-06T02:45:23.994Z,99.99
2022-10-06T02:46:24.024Z,99.99
2022-10-06T02:47:23.978Z,99.99
2022-10-06T02:48:24.058Z,99.99
2022-10-06T02:49:23.954Z,99.99
2022-10-06T02:50:23.932Z,99.99
2022-10-06T02:51:23.929Z,99.99
2022-10-06T02:52:26.915Z,99.99
2022-10-06T02:53:23.926Z,99.99
2022-10-06T02:54:23.894Z,99.99
2022-10-06T02:55:23.880Z,99.99
2022-10-06T02:56:23.874Z,99.99
2022-10-06T02:57:23.859Z,99.99
2022-10-06T02:58:23.849Z,99.99
2022-10-06T02:59:23.941Z,99.99
2022-10-06T03:00:23.828Z,99.99
2022-10-06T03:01:23.849Z,99.99
2022-10-06T03:02:23.950Z,99.99
2022-10-06T03:03:23.797Z,99.99
2022-10-06T03:04:23.818Z,99.99
2022-10-06T03:05:23.783Z,99.99
2022-10-06T03:06:23.773Z,99.99
2022-10-06T03:07:26.762Z,99.99
2022-10-06T03:08:23.786Z,99.99
2022-10-06T03:09:23.761Z,99.99
2022-10-06T03:10:23.720Z,99.99
2022-10-06T03:11:23.712Z,99.99
2022-10-06T03:12:23.703Z,99.99
2022-10-06T03:13:23.736Z,99.99
2022-10-06T03:14:23.684Z,99.99
2022-10-06T03:15:23.684Z,99.99
2022-10-06T03:16:23.743Z,99.99
2022-10-06T03:17:23.652Z,99.99
2022-10-06T03:18:23.652Z,99.99
2022-10-06T03:19:23.632Z,99.99
2022-10-06T03:20:23.614Z,99.99
2022-10-06T03:21:23.615Z,99.99
2022-10-06T03:22:26.594Z,99.99
2022-10-06T03:23:23.606Z,99.99
2022-10-06T03:24:23.613Z,99.99
2022-10-06T03:25:23.568Z,99.99
2022-10-06T03:26:23.556Z,99.99
2022-10-06T03:27:23.543Z,99.99
2022-10-06T03:28:23.639Z,99.99
2022-10-06T03:29:23.534Z,99.99
2022-10-06T03:30:23.505Z,99.99
2022-10-06T03:31:23.596Z,99.99
2022-10-06T03:32:23.493Z,99.99
2022-10-06T03:33:23.484Z,99.99
2022-10-06T03:34:23.466Z,99.99
2022-10-06T03:35:23.485Z,99.99
2022-10-06T03:36:23.451Z,99.99
2022-10-06T03:37:26.438Z,99.99
2022-10-06T03:38:23.448Z,99.99
2022-10-06T03:39:23.420Z,99.99
2022-10-06T03:40:23.410Z,99.99
2022-10-06T03:41:23.410Z,99.99
2022-10-06T03:42:23.394Z,99.99
2022-10-06T03:43:23.379Z,99.99
2022-10-06T03:44:23.370Z,99.99
2022-10-06T03:45:23.367Z,99.99
2022-10-06T03:46:23.439Z,99.99
2022-10-06T03:47:23.329Z,99.99
2022-10-06T03:48:23.321Z,99.99
2022-10-06T03:49:23.314Z,99.99
2022-10-06T03:50:23.299Z,99.99
2022-10-06T03:51:23.292Z,99.99
2022-10-06T03:52:26.318Z,99.99
2022-10-06T03:53:23.290Z,99.99
2022-10-06T03:54:23.259Z,99.99
2022-10-06T03:55:23.250Z,99.99
2022-10-06T03:56:23.240Z,99.99
2022-10-06T03:57:23.322Z,99.99
2022-10-06T03:58:23.212Z,99.99
2022-10-06T03:59:23.222Z,99.99
2022-10-06T04:00:23.197Z,99.99
2022-10-06T04:01:26.117Z,99.99
2022-10-06T04:02:23.275Z,99.99
2022-10-06T04:03:23.173Z,99.99
2022-10-06T04:04:23.154Z,99.99
2022-10-06T04:05:23.253Z,99.99
2022-10-06T04:06:23.143Z,99.99
2022-10-06T04:07:26.140Z,99.99
2022-10-06T04:08:23.133Z,99.99
2022-10-06T04:09:23.152Z,99.99
2022-10-06T04:10:23.093Z,99.99
2022-10-06T04:11:23.074Z,99.99
2022-10-06T04:12:23.074Z,99.99
2022-10-06T04:13:23.067Z,99.99
2022-10-06T04:14:23.085Z,99.99
2022-10-06T04:15:23.145Z,99.99
2022-10-06T04:16:23.092Z,99.99
2022-10-06T04:17:23.024Z,99.99
2022-10-06T04:18:23.015Z,99.99
2022-10-06T04:19:23.026Z,99.99
2022-10-06T04:20:22.997Z,99.99
2022-10-06T04:21:22.979Z,99.99
2022-10-06T04:22:25.983Z,99.99
2022-10-06T04:23:22.981Z,99.99
2022-10-06T04:24:22.980Z,99.99
2022-10-06T04:25:22.939Z,99.99
2022-10-06T04:26:22.940Z,99.99
2022-10-06T04:27:22.925Z,99.99
2022-10-06T04:28:22.936Z,99.99
2022-10-06T04:29:22.939Z,99.99
2022-10-06T04:30:22.907Z,99.99
2022-10-06T04:31:22.934Z,99.99
2022-10-06T04:32:22.859Z,99.99
2022-10-06T04:33:22.865Z,99.99
2022-10-06T04:34:22.950Z,99.99
2022-10-06T04:35:22.841Z,99.99
2022-10-06T04:36:22.829Z,99.99
2022-10-06T04:37:25.819Z,99.99
2022-10-06T04:38:22.823Z,99.99
2022-10-06T04:39:22.837Z,99.99
2022-10-06T04:40:22.793Z,99.99
2022-10-06T04:41:22.773Z,99.99
2022-10-06T04:42:22.765Z,99.99
2022-10-06T04:43:22.763Z,99.99
2022-10-06T04:44:22.738Z,99.99
2022-10-06T04:45:22.735Z,99.99
2022-10-06T04:46:43.186Z,99.99
2022-10-06T04:47:23.710Z,99.99
2022-10-06T04:48:22.707Z,99.99
2022-10-06T04:49:22.721Z,99.99
2022-10-06T04:50:22.674Z,99.99
2022-10-06T04:51:22.665Z,99.99
2022-10-06T04:52:25.654Z,99.99
2022-10-06T04:53:22.654Z,99.99
2022-10-06T04:54:22.634Z,99.99
2022-10-06T04:55:23.625Z,99.99
2022-10-06T04:56:22.625Z,99.99
2022-10-06T04:57:22.605Z,99.99
2022-10-06T04:58:22.597Z,99.99
2022-10-06T04:59:22.591Z,99.99
2022-10-06T05:00:22.563Z,99.99
2022-10-06T05:01:22.621Z,99.99
2022-10-06T05:02:22.652Z,99.99
2022-10-06T05:03:22.503Z,99.99
2022-10-06T05:04:22.496Z,99.99
2022-10-06T05:05:22.457Z,99.99
2022-10-06T05:06:22.467Z,99.99
2022-10-06T05:07:25.449Z,99.99
2022-10-06T05:08:22.459Z,99.99
2022-10-06T05:09:22.431Z,99.99
2022-10-06T05:10:22.416Z,99.99
2022-10-06T05:11:25.696Z,99.99
2022-10-06T05:12:22.389Z,99.99
2022-10-06T05:13:22.386Z,99.99
2022-10-06T05:14:22.367Z,99.99
2022-10-06T05:15:22.357Z,99.99
2022-10-06T05:16:22.415Z,99.99
2022-10-06T05:17:22.334Z,99.99
2022-10-06T05:18:22.342Z,99.99
2022-10-06T05:19:22.321Z,99.99
2022-10-06T05:20:22.318Z,99.99
2022-10-06T05:21:22.288Z,99.99
2022-10-06T05:22:25.325Z,99.99
2022-10-06T05:23:22.303Z,99.99
2022-10-06T05:24:22.277Z,99.99
2022-10-06T05:25:22.252Z,99.99
2022-10-06T05:26:22.241Z,99.99
2022-10-06T05:27:22.238Z,99.99
2022-10-06T05:28:22.279Z,99.99
2022-10-06T05:29:22.208Z,99.99
2022-10-06T05:30:22.211Z,99.99
2022-10-06T05:31:22.237Z,99.99
2022-10-06T05:32:22.184Z,99.99
2022-10-06T05:33:22.266Z,99.99
2022-10-06T05:34:22.163Z,99.99
2022-10-06T05:35:22.145Z,99.99
2022-10-06T05:36:22.143Z,99.99
2022-10-06T05:37:25.133Z,99.99
2022-10-06T05:38:22.164Z,99.99
2022-10-06T05:39:22.108Z,99.99
2022-10-06T05:40:22.105Z,99.99
2022-10-06T05:41:22.095Z,99.99
2022-10-06T05:42:24.138Z,99.99
2022-10-06T05:43:22.056Z,99.99
2022-10-06T05:44:22.055Z,99.99
2022-10-06T05:45:22.044Z,99.99
2022-10-06T05:46:22.099Z,99.99
2022-10-06T05:47:22.033Z,99.99
2022-10-06T05:48:22.107Z,99.99
2022-10-06T05:49:22.020Z,99.99
2022-10-06T05:50:21.986Z,99.99
2022-10-06T05:51:24.577Z,99.99
2022-10-06T05:52:24.972Z,99.99
2022-10-06T05:53:21.984Z,99.99
2022-10-06T05:54:21.978Z,99.99
2022-10-06T05:55:21.945Z,99.99
2022-10-06T05:56:21.930Z,99.99
2022-10-06T05:57:21.957Z,99.99
2022-10-06T05:58:21.917Z,99.99
2022-10-06T05:59:21.890Z,99.99
2022-10-06T06:00:21.898Z,99.99
2022-10-06T06:01:21.911Z,99.99
2022-10-06T06:02:21.964Z,99.99
2022-10-06T06:03:21.856Z,99.99
2022-10-06T06:04:21.862Z,99.99
2022-10-06T06:05:21.840Z,99.99
2022-10-06T06:06:21.822Z,99.99
2022-10-06T06:07:24.850Z,99.99
2022-10-06T06:08:21.818Z,99.99
2022-10-06T06:09:21.799Z,99.99
2022-10-06T06:10:21.785Z,99.99
2022-10-06T06:11:21.770Z,99.99
2022-10-06T06:12:21.785Z,99.99
2022-10-06T06:13:21.750Z,99.99
2022-10-06T06:14:21.744Z,99.99
2022-10-06T06:15:21.737Z,99.99
2022-10-06T06:16:21.747Z,99.99
2022-10-06T06:17:21.860Z,99.99
2022-10-06T06:18:21.780Z,99.99
2022-10-06T06:19:24.853Z,99.99
2022-10-06T06:20:21.683Z,99.99
2022-10-06T06:21:21.718Z,99.99
2022-10-06T06:22:24.661Z,99.99
2022-10-06T06:23:21.664Z,99.99
2022-10-06T06:24:21.641Z,99.99
2022-10-06T06:25:21.621Z,99.99
2022-10-06T06:26:21.614Z,99.99
2022-10-06T06:27:21.608Z,99.99
2022-10-06T06:28:21.648Z,99.99
2022-10-06T06:29:21.585Z,99.99
2022-10-06T06:30:21.575Z,99.99
2022-10-06T06:31:21.601Z,99.99
2022-10-06T06:32:21.582Z,99.99
2022-10-06T06:33:21.543Z,99.99
2022-10-06T06:34:21.536Z,99.99
2022-10-06T06:35:21.525Z,99.99
2022-10-06T06:36:21.506Z,99.99
2022-10-06T06:37:24.535Z,99.99
2022-10-06T06:38:21.519Z,99.99
2022-10-06T06:39:21.490Z,99.99
2022-10-06T06:40:21.467Z,99.99
2022-10-06T06:41:21.458Z,99.99
2022-10-06T06:42:21.474Z,99.99
2022-10-06T06:43:21.443Z,99.99
2022-10-06T06:44:21.435Z,99.99
2022-10-06T06:45:21.416Z,99.99
2022-10-06T06:46:21.526Z,99.99
2022-10-06T06:47:23.131Z,99.99
2022-10-06T06:48:21.387Z,99.99
2022-10-06T06:49:21.377Z,99.99
2022-10-06T06:50:21.376Z,99.99
2022-10-06T06:51:21.355Z,99.99
2022-10-06T06:52:24.367Z,99.99
2022-10-06T06:53:21.381Z,99.99
2022-10-06T06:54:21.330Z,99.99
2022-10-06T06:55:21.321Z,99.99
2022-10-06T06:56:21.309Z,99.99
2022-10-06T06:57:21.309Z,99.99
2022-10-06T06:58:21.291Z,99.99
2022-10-06T06:59:21.270Z,99.99
2022-10-06T07:00:21.259Z,99.99
2022-10-06T07:01:21.298Z,99.99
2022-10-06T07:02:21.289Z,99.99
2022-10-06T07:03:33.010Z,99.99
2022-10-06T07:04:22.234Z,99.99
2022-10-06T07:05:21.211Z,99.99
2022-10-06T07:06:23.497Z,99.99
2022-10-06T07:07:24.191Z,99.99
2022-10-06T07:08:21.202Z,99.99
2022-10-06T07:09:21.171Z,99.99
2022-10-06T07:10:21.159Z,99.99
2022-10-06T07:11:21.194Z,99.99
2022-10-06T07:12:21.146Z,99.99
2022-10-06T07:13:21.128Z,99.99
2022-10-06T07:14:21.121Z,99.99
2022-10-06T07:15:21.101Z,99.99
2022-10-06T07:16:21.262Z,99.99
2022-10-06T07:17:21.081Z,99.99
2022-10-06T07:18:21.081Z,99.99
2022-10-06T07:19:24.604Z,99.99
2022-10-06T07:20:21.058Z,99.99
2022-10-06T07:21:21.044Z,99.99
2022-10-06T07:22:24.026Z,99.99
2022-10-06T07:23:21.037Z,99.99
2022-10-06T07:24:21.006Z,99.99
2022-10-06T07:25:25.442Z,99.99
2022-10-06T07:26:20.985Z,99.99
2022-10-06T07:27:21.017Z,99.99
2022-10-06T07:28:21.010Z,99.19
2022-10-06T07:29:20.965Z,98.43
2022-10-06T07:30:20.940Z,98.18
2022-10-06T07:31:20.992Z,97.73
2022-10-06T07:32:20.939Z,96.26
2022-10-06T07:33:20.913Z,95.61
2022-10-06T07:34:20.901Z,94.79
2022-10-06T07:35:20.891Z,93.83
2022-10-06T07:36:20.934Z,92.87
2022-10-06T07:37:23.876Z,91.91
2022-10-06T07:38:20.889Z,92.68
2022-10-06T07:39:20.848Z,92.18
2022-10-06T07:40:20.850Z,92.13
2022-10-06T07:41:20.903Z,91.12
2022-10-06T07:42:20.841Z,90.16
2022-10-06T07:43:20.818Z,89.21
2022-10-06T07:44:20.799Z,89.57
2022-10-06T07:45:20.780Z,89.77
2022-10-06T07:46:20.829Z,88.82
2022-10-06T07:47:20.931Z,89.12
2022-10-06T07:48:20.758Z,88.88
2022-10-06T07:49:20.751Z,89.69
2022-10-06T07:50:20.743Z,88.98
2022-10-06T07:51:20.760Z,89.04
2022-10-06T07:52:23.711Z,87.82
2022-10-06T07:53:20.723Z,88.59
2022-10-06T07:54:23.998Z,88.39
2022-10-06T07:55:20.690Z,86.93
2022-10-06T07:56:20.683Z,85.68
2022-10-06T07:57:20.664Z,85.24
2022-10-06T07:58:20.756Z,84.09
2022-10-06T07:59:20.644Z,81.32
2022-10-06T08:00:20.729Z,79.21
2022-10-06T08:01:20.703Z,80.58
2022-10-06T08:02:20.684Z,79.87
2022-10-06T08:03:20.625Z,80.94
2022-10-06T08:04:20.604Z,78.52
2022-10-06T08:05:20.574Z,79.23
2022-10-06T08:06:20.574Z,78.79
2022-10-06T08:07:23.595Z,78.05
2022-10-06T08:08:20.557Z,77.95
2022-10-06T08:09:20.731Z,78.75
2022-10-06T08:10:20.527Z,76.50
2022-10-06T08:11:20.526Z,75.19
2022-10-06T08:12:20.546Z,76.60
2022-10-06T08:13:20.503Z,77.31
2022-10-06T08:14:20.498Z,77.97
2022-10-06T08:15:20.476Z,75.82
2022-10-06T08:16:20.605Z,74.72
2022-10-06T08:17:20.449Z,74.45
2022-10-06T08:18:44.602Z,75.96
2022-10-06T08:19:21.590Z,76.06
2022-10-06T08:20:20.446Z,74.99
2022-10-06T08:21:20.442Z,76.10
2022-10-06T08:22:23.397Z,76.16
2022-10-06T08:23:20.400Z,75.56
2022-10-06T08:25:20.362Z,74.45
2022-10-06T08:26:20.390Z,75.12
2022-10-06T08:27:20.351Z,75.62
2022-10-06T08:28:20.390Z,74.98
2022-10-06T08:29:20.323Z,73.78
2022-10-06T08:30:20.315Z,74.62
2022-10-06T08:31:20.382Z,75.62
2022-10-06T08:32:20.286Z,76.23
2022-10-06T08:33:21.568Z,74.85
2022-10-06T08:34:20.262Z,76.36
2022-10-06T08:35:20.244Z,76.46
2022-10-06T08:36:20.249Z,76.26
2022-10-06T08:37:24.261Z,77.23
2022-10-06T08:38:20.253Z,76.03
2022-10-06T08:39:20.215Z,75.79
2022-10-06T08:40:20.276Z,74.78
2022-10-06T08:41:20.196Z,74.88
2022-10-06T08:42:20.264Z,74.58
2022-10-06T08:43:20.178Z,74.78
2022-10-06T08:44:20.156Z,77.20
2022-10-06T08:45:20.158Z,76.09
2022-10-06T08:46:23.898Z,76.65
2022-10-06T08:47:20.125Z,74.85
2022-10-06T08:48:20.118Z,74.01
2022-10-06T08:49:20.121Z,73.71
2022-10-06T08:50:20.143Z,73.30
2022-10-06T08:51:20.077Z,74.88
2022-10-06T08:52:23.078Z,75.18
2022-10-06T08:53:20.078Z,73.57
2022-10-06T08:54:20.056Z,73.87
2022-10-06T08:55:20.039Z,71.47
2022-10-06T08:57:58.212Z,71.66
2022-10-06T08:58:57.943Z,70.76
2022-10-06T08:59:58.233Z,73.27
2022-10-06T09:00:57.970Z,72.87
2022-10-06T09:01:57.998Z,72.24
2022-10-06T09:02:57.911Z,72.03
2022-10-06T09:03:57.900Z,73.84
2022-10-06T09:04:57.900Z,74.94
2022-10-06T09:05:57.872Z,73.24
2022-10-06T09:06:57.893Z,73.64
2022-10-06T09:07:57.853Z,73.94
2022-10-06T09:08:57.852Z,73.64
2022-10-06T09:09:58.176Z,73.44
2022-10-06T09:11:00.823Z,74.24
2022-10-06T09:11:57.837Z,74.34
2022-10-06T09:12:57.802Z,73.03
2022-10-06T09:13:57.794Z,73.84
2022-10-06T09:14:57.789Z,72.63
2022-10-06T09:15:57.832Z,71.03
2022-10-06T09:16:57.766Z,72.63
2022-10-06T09:17:57.795Z,72.53
2022-10-06T09:19:08.149Z,73.24
2022-10-06T09:19:58.082Z,73.90
2022-10-06T09:20:57.723Z,73.40
2022-10-06T09:21:57.791Z,72.16
2022-10-06T09:22:57.701Z,72.36
2022-10-06T09:23:57.733Z,72.06
2022-10-06T09:24:57.704Z,70.96
2022-10-06T09:26:00.748Z,70.96
2022-10-06T09:26:57.862Z,71.86
2022-10-06T09:27:57.704Z,71.59
2022-10-06T09:28:57.669Z,71.09
2022-10-06T09:29:58.027Z,71.20
2022-10-06T09:30:57.707Z,70.46
2022-10-06T09:31:57.612Z,71.86
2022-10-06T09:32:57.613Z,72.06
2022-10-06T09:33:57.594Z,70.39
2022-10-06T09:34:57.589Z,70.19
2022-10-06T09:35:57.708Z,71.90
2022-10-06T09:37:01.080Z,72.66
2022-10-06T09:37:57.557Z,72.97
2022-10-06T09:38:58.548Z,72.53
2022-10-06T09:39:57.941Z,71.63
2022-10-06T09:41:00.705Z,70.32
2022-10-06T09:42:06.862Z,70.53
2022-10-06T09:42:57.492Z,70.19
2022-10-06T09:43:57.504Z,70.19
2022-10-06T09:44:57.478Z,70.29
2022-10-06T09:45:57.510Z,69.69
2022-10-06T09:46:57.487Z,69.49
2022-10-06T09:47:57.440Z,69.19
2022-10-06T09:48:57.437Z,68.09
2022-10-06T09:49:57.964Z,69.39
2022-10-06T09:50:57.416Z,69.49
2022-10-06T09:51:57.430Z,70.29
2022-10-06T09:52:57.398Z,69.49
2022-10-06T09:53:57.379Z,69.49
2022-10-06T09:54:57.370Z,68.89
2022-10-06T09:56:00.375Z,68.59
2022-10-06T09:56:57.379Z,67.09
2022-10-06T09:57:57.378Z,67.39
2022-10-06T09:58:57.380Z,67.59
2022-10-06T09:59:57.841Z,68.12
2022-10-06T10:00:57.342Z,68.82
2022-10-06T10:01:57.293Z,69.23
2022-10-06T10:02:57.406Z,67.12
2022-10-06T10:04:18.790Z,66.55
2022-10-06T10:04:58.260Z,67.65
2022-10-06T10:05:57.255Z,68.55
2022-10-06T10:06:57.252Z,68.85
2022-10-06T10:07:57.278Z,68.85
2022-10-06T10:08:57.229Z,68.32
2022-10-06T10:09:57.528Z,68.52
2022-10-06T10:11:00.204Z,67.82
2022-10-06T10:11:57.217Z,68.52
2022-10-06T10:12:57.185Z,67.72
2022-10-06T10:13:57.178Z,68.22
2022-10-06T10:14:57.156Z,68.76
2022-10-06T10:15:57.214Z,67.85
2022-10-06T10:16:57.141Z,69.29
2022-10-06T10:17:57.161Z,70.29
2022-10-06T10:18:57.129Z,71.39
2022-10-06T10:19:57.572Z,71.16
2022-10-06T10:20:57.110Z,70.46
2022-10-06T10:21:57.090Z,69.82
2022-10-06T10:22:57.072Z,68.22
2022-10-06T10:23:57.071Z,68.82
2022-10-06T10:24:57.063Z,68.92
2022-10-06T10:26:00.052Z,68.39
2022-10-06T10:26:57.054Z,68.89
2022-10-06T10:27:57.247Z,68.99
2022-10-06T10:28:57.024Z,68.59
2022-10-06T10:29:57.215Z,69.59
2022-10-06T10:30:57.071Z,68.55
2022-10-06T10:31:57.010Z,68.89
2022-10-06T10:32:56.974Z,68.69
2022-10-06T10:34:11.924Z,68.99
2022-10-06T10:34:58.279Z,68.66
2022-10-06T10:35:56.952Z,69.36
2022-10-06T10:36:56.935Z,69.16
2022-10-06T10:37:56.965Z,69.12
2022-10-06T10:38:56.912Z,68.23
2022-10-06T10:39:56.915Z,67.93
2022-10-06T10:40:59.895Z,69.02
2022-10-06T10:41:56.898Z,67.52
2022-10-06T10:42:56.874Z,67.72
2022-10-06T10:43:59.616Z,67.49
2022-10-06T10:44:57.130Z,67.69
2022-10-06T10:45:56.847Z,67.19
2022-10-06T10:46:56.877Z,68.09
2022-10-06T10:47:56.817Z,67.79
2022-10-06T10:48:56.868Z,68.02
2022-10-06T10:49:56.799Z,67.32
2022-10-06T10:50:56.790Z,67.82
2022-10-06T10:51:56.860Z,68.32
2022-10-06T10:52:56.870Z,68.19
2022-10-06T10:53:56.760Z,67.29
2022-10-06T10:54:56.935Z,66.79
2022-10-06T10:55:59.736Z,67.49
2022-10-06T10:56:56.957Z,66.49
2022-10-06T10:57:56.721Z,66.29
2022-10-06T10:58:56.711Z,65.79
2022-10-06T10:59:56.704Z,66.19
2022-10-06T11:00:56.780Z,66.19
2022-10-06T11:01:56.893Z,65.59
2022-10-06T11:02:56.671Z,65.62
2022-10-06T11:03:56.801Z,66.52
2022-10-06T11:04:57.111Z,65.92
2022-10-06T11:05:56.633Z,66.22
2022-10-06T11:06:56.624Z,66.25
2022-10-06T11:07:56.614Z,65.95
2022-10-06T11:08:56.609Z,65.86
2022-10-06T11:09:56.588Z,66.46
2022-10-06T11:10:59.575Z,66.25
2022-10-06T11:11:56.667Z,67.16
2022-10-06T11:12:56.606Z,66.25
2022-10-06T11:13:56.560Z,67.86
2022-10-06T11:14:56.941Z,66.25
2022-10-06T11:15:56.577Z,65.86
2022-10-06T11:16:56.527Z,66.25
2022-10-06T11:17:56.555Z,66.05
2022-10-06T11:18:56.522Z,65.25
2022-10-06T11:19:56.488Z,65.75
2022-10-06T11:20:56.484Z,65.72
2022-10-06T11:21:56.798Z,66.13
2022-10-06T11:22:56.462Z,64.36
2022-10-06T11:23:56.458Z,65.16
2022-10-06T11:24:56.824Z,66.02
2022-10-06T11:25:59.474Z,67.02
2022-10-06T11:26:56.434Z,66.52
2022-10-06T11:27:56.528Z,66.52
2022-10-06T11:28:56.393Z,65.89
2022-10-06T11:29:56.647Z,66.19
2022-10-06T11:30:56.385Z,65.59
2022-10-06T11:31:56.395Z,65.09
2022-10-06T11:32:56.376Z,65.19
2022-10-06T11:33:56.344Z,64.96
2022-10-06T11:34:56.337Z,65.06
2022-10-06T11:35:56.326Z,65.86
2022-10-06T11:36:56.337Z,66.26
2022-10-06T11:37:56.308Z,65.39
2022-10-06T11:38:56.299Z,65.89
2022-10-06T11:39:56.647Z,66.69
2022-10-06T11:40:59.276Z,66.89
2022-10-06T11:41:56.283Z,67.29
2022-10-06T11:42:56.257Z,66.99
2022-10-06T11:43:56.250Z,67.32
2022-10-06T11:44:56.564Z,68.43
2022-10-06T11:45:56.298Z,67.43
2022-10-06T11:46:56.213Z,66.79
2022-10-06T11:47:56.201Z,66.19
2022-10-06T11:48:56.191Z,65.56
2022-10-06T11:49:56.185Z,65.86
2022-10-06T11:50:56.171Z,66.76
2022-10-06T11:51:59.567Z,66.26
2022-10-06T11:52:56.146Z,66.43
2022-10-06T11:53:56.137Z,66.83
2022-10-06T11:54:56.432Z,66.13
2022-10-06T11:55:59.123Z,66.03
2022-10-06T11:56:56.113Z,64.83
2022-10-06T11:57:56.092Z,64.63
2022-10-06T11:58:57.100Z,65.43
2022-10-06T11:59:56.079Z,65.93
2022-10-06T12:00:56.099Z,65.96
2022-10-06T12:01:56.258Z,66.76
2022-10-06T12:02:56.236Z,67.56
2022-10-06T12:03:56.063Z,66.86
2022-10-06T12:04:56.433Z,66.33
2022-10-06T12:05:57.022Z,66.83
2022-10-06T12:06:56.001Z,66.43
2022-10-06T12:07:55.986Z,65.56
2022-10-06T12:08:56.049Z,66.33
2022-10-06T12:09:55.973Z,66.23
2022-10-06T12:10:58.959Z,66.73
2022-10-06T12:11:55.968Z,65.06
2022-10-06T12:13:21.277Z,66.26
2022-10-06T12:17:18.328Z,66.96
2022-10-06T12:17:56.881Z,66.23
2022-10-06T12:18:55.916Z,66.63
2022-10-06T12:19:55.864Z,66.73
2022-10-06T12:20:55.860Z,66.09
2022-10-06T12:21:55.840Z,65.20
2022-10-06T12:22:55.841Z,65.30
2022-10-06T12:23:55.824Z,65.97
2022-10-06T12:24:56.304Z,65.37
2022-10-06T12:25:58.803Z,65.14
2022-10-06T12:26:55.805Z,65.14
2022-10-06T12:27:55.812Z,64.64
2022-10-06T12:28:55.770Z,63.84
2022-10-06T12:29:56.191Z,64.04
2022-10-06T12:30:55.792Z,63.71
2022-10-06T12:31:55.737Z,63.81
2022-10-06T12:32:55.730Z,63.81
2022-10-06T12:33:55.750Z,63.04
2022-10-06T12:34:55.932Z,63.54
2022-10-06T12:35:55.698Z,64.47
2022-10-06T12:36:55.679Z,64.87
2022-10-06T12:37:55.684Z,64.70
2022-10-06T12:38:55.665Z,65.00
2022-10-06T12:39:55.652Z,65.20
2022-10-06T12:40:58.641Z,65.20
2022-10-06T12:41:55.675Z,65.40
2022-10-06T12:42:55.648Z,64.90
2022-10-06T12:43:55.625Z,64.57
2022-10-06T12:44:56.039Z,63.97
2022-10-06T12:45:55.636Z,62.18
2022-10-06T12:46:55.582Z,62.77
2022-10-06T12:47:55.565Z,61.90
2022-10-06T12:48:55.567Z,63.10
2022-10-06T12:49:55.574Z,62.90
2022-10-06T12:50:55.535Z,63.23
2022-10-06T12:51:58.954Z,64.13
2022-10-06T12:52:55.515Z,64.46
2022-10-06T12:53:55.515Z,64.66
2022-10-06T12:54:55.864Z,65.03
2022-10-06T12:55:58.488Z,64.80
2022-10-06T12:56:55.606Z,64.80
2022-10-06T12:57:55.473Z,64.90